1AZ7 weather

S R P Tolleson Center Heliport
Tolleson, Arizona, United States

Public forecast

Using degrees Fahrenheit for public forecast. Weather courtesy of forecast.io.

Closest aviation weather report (METAR) to S R P Tolleson Center Heliport

Closest report is Glendale Municipal Airport, 5.7 nm (10.5 km) NW. Retrieved 2020/07/11 02:47 UTC (2 hours ago):

KGEU 110247Z 21008KT 10SM FEW100 FEW160 42/11 A2981 RMK LAST

Closest aviation forecast (TAF) to S R P Tolleson Center Heliport

Forecast is more than 12 hours old.

Closest forecast is Luke Air Force Base, 9.2 nm (17.1 km) NW. Retrieved 2020-07-10 04:36 UTC (1 day ago):

TAF KLUF 100400Z 1004/1110 22009KT 9999 FEW070 QNH2976INS BECMG 1019/1020 27012G20KT 9999 SKC QNH2981INS BECMG 1103/1104 VRB06KT 9999 SKC QNH2983INS TX44/1023Z TN29/1009Z LAST NO AMDS AFT 1007 NEXT 1312